sensor_id;sensor_type;location;lat;lon;timestamp;temperature;humidity
15690;DHT22;7945;48.816;11.506;2024-03-02T00:01:30;8.20;99.90
15690;DHT22;7945;48.816;11.506;2024-03-02T00:03:57;8.20;99.90
15690;DHT22;7945;48.816;11.506;2024-03-02T00:06:25;8.10;99.90
15690;DHT22;7945;48.816;11.506;2024-03-02T00:08:51;8.10;99.90
15690;DHT22;7945;48.816;11.506;2024-03-02T00:11:23;8.10;99.90
15690;DHT22;7945;48.816;11.506;2024-03-02T00:13:52;8.10;99.90
15690;DHT22;7945;48.816;11.506;2024-03-02T00:16:19;8.10;99.90
15690;DHT22;7945;48.816;11.506;2024-03-02T00:18:46;8.10;99.90
15690;DHT22;7945;48.816;11.506;2024-03-02T00:21:13;8.10;99.90
15690;DHT22;7945;48.816;11.506;2024-03-02T00:23:43;8.10;99.90
15690;DHT22;7945;48.816;11.506;2024-03-02T00:26:11;8.00;99.90
15690;DHT22;7945;48.816;11.506;2024-03-02T00:28:39;8.00;99.90
15690;DHT22;7945;48.816;11.506;2024-03-02T00:31:09;8.00;99.90
15690;DHT22;7945;48.816;11.506;2024-03-02T00:33:40;8.00;99.90
15690;DHT22;7945;48.816;11.506;2024-03-02T00:36:08;8.00;99.90
15690;DHT22;7945;48.816;11.506;2024-03-02T00:38:44;8.00;99.90
15690;DHT22;7945;48.816;11.506;2024-03-02T00:41:16;7.90;99.90
15690;DHT22;7945;48.816;11.506;2024-03-02T00:43:50;7.90;99.90
15690;DHT22;7945;48.816;11.506;2024-03-02T00:46:20;7.90;99.90
15690;DHT22;7945;48.816;11.506;2024-03-02T00:48:55;7.90;99.90
15690;DHT22;7945;48.816;11.506;2024-03-02T00:51:23;7.90;99.90
15690;DHT22;7945;48.816;11.506;2024-03-02T00:53:51;7.80;99.90
15690;DHT22;7945;48.816;11.506;2024-03-02T00:56:20;7.80;99.90
15690;DHT22;7945;48.816;11.506;2024-03-02T00:58:48;7.80;99.90
15690;DHT22;7945;48.816;11.506;2024-03-02T01:01:15;7.70;99.90
15690;DHT22;7945;48.816;11.506;2024-03-02T01:03:42;7.70;99.90
15690;DHT22;7945;48.816;11.506;2024-03-02T01:06:09;7.70;99.90
15690;DHT22;7945;48.816;11.506;2024-03-02T01:08:35;7.70;99.90
15690;DHT22;7945;48.816;11.506;2024-03-02T01:11:04;7.60;99.90
15690;DHT22;7945;48.816;11.506;2024-03-02T01:13:31;7.70;99.90
15690;DHT22;7945;48.816;11.506;2024-03-02T01:15:58;7.60;99.90
15690;DHT22;7945;48.816;11.506;2024-03-02T01:18:26;7.60;99.90
15690;DHT22;7945;48.816;11.506;2024-03-02T01:20:52;7.60;99.90
15690;DHT22;7945;48.816;11.506;2024-03-02T01:23:21;7.60;99.90
15690;DHT22;7945;48.816;11.506;2024-03-02T01:25:48;7.60;99.90
15690;DHT22;7945;48.816;11.506;2024-03-02T01:28:16;7.60;99.90
15690;DHT22;7945;48.816;11.506;2024-03-02T01:30:43;7.60;99.90
15690;DHT22;7945;48.816;11.506;2024-03-02T01:33:10;9.20;99.90
15690;DHT22;7945;48.816;11.506;2024-03-02T01:35:36;7.60;99.90
15690;DHT22;7945;48.816;11.506;2024-03-02T01:38:04;7.60;99.90
15690;DHT22;7945;48.816;11.506;2024-03-02T01:40:32;7.60;99.90
15690;DHT22;7945;48.816;11.506;2024-03-02T01:42:59;7.60;99.90
15690;DHT22;7945;48.816;11.506;2024-03-02T01:45:29;7.50;99.90
15690;DHT22;7945;48.816;11.506;2024-03-02T01:47:56;7.50;99.90
15690;DHT22;7945;48.816;11.506;2024-03-02T01:50:26;7.50;99.90
15690;DHT22;7945;48.816;11.506;2024-03-02T01:52:54;7.50;99.90
15690;DHT22;7945;48.816;11.506;2024-03-02T01:55:21;7.50;99.90
15690;DHT22;7945;48.816;11.506;2024-03-02T01:57:48;7.50;99.90
15690;DHT22;7945;48.816;11.506;2024-03-02T02:00:16;7.50;99.90
15690;DHT22;7945;48.816;11.506;2024-03-02T02:02:45;7.50;99.90
15690;DHT22;7945;48.816;11.506;2024-03-02T02:05:11;7.50;99.90
15690;DHT22;7945;48.816;11.506;2024-03-02T02:07:40;7.50;99.90
15690;DHT22;7945;48.816;11.506;2024-03-02T02:10:07;7.60;99.90
15690;DHT22;7945;48.816;11.506;2024-03-02T02:12:34;7.40;99.90
15690;DHT22;7945;48.816;11.506;2024-03-02T02:15:01;7.40;99.90
15690;DHT22;7945;48.816;11.506;2024-03-02T02:17:28;7.50;99.90
15690;DHT22;7945;48.816;11.506;2024-03-02T02:19:56;7.50;99.90
15690;DHT22;7945;48.816;11.506;2024-03-02T02:22:24;7.50;99.90
15690;DHT22;7945;48.816;11.506;2024-03-02T02:24:56;7.50;99.90
15690;DHT22;7945;48.816;11.506;2024-03-02T02:27:23;7.50;99.90
15690;DHT22;7945;48.816;11.506;2024-03-02T02:29:49;7.50;99.90
15690;DHT22;7945;48.816;11.506;2024-03-02T02:32:16;7.50;99.90
15690;DHT22;7945;48.816;11.506;2024-03-02T02:34:42;7.50;99.90
15690;DHT22;7945;48.816;11.506;2024-03-02T02:37:09;7.50;99.90
15690;DHT22;7945;48.816;11.506;2024-03-02T02:39:37;7.50;99.90
15690;DHT22;7945;48.816;11.506;2024-03-02T02:42:05;7.50;99.90
15690;DHT22;7945;48.816;11.506;2024-03-02T02:44:32;7.50;99.90
15690;DHT22;7945;48.816;11.506;2024-03-02T02:46:59;7.50;99.90
15690;DHT22;7945;48.816;11.506;2024-03-02T02:49:26;7.50;99.90
15690;DHT22;7945;48.816;11.506;2024-03-02T02:51:52;7.50;99.90
15690;DHT22;7945;48.816;11.506;2024-03-02T02:54:19;7.50;99.90
15690;DHT22;7945;48.816;11.506;2024-03-02T02:56:47;7.50;99.90
15690;DHT22;7945;48.816;11.506;2024-03-02T02:59:14;7.50;99.90
15690;DHT22;7945;48.816;11.506;2024-03-02T03:01:41;7.60;99.90
15690;DHT22;7945;48.816;11.506;2024-03-02T03:04:08;7.60;99.90
15690;DHT22;7945;48.816;11.506;2024-03-02T03:06:35;7.60;99.90
15690;DHT22;7945;48.816;11.506;2024-03-02T03:09:01;7.60;99.90
15690;DHT22;7945;48.816;11.506;2024-03-02T03:11:29;7.60;99.90
15690;DHT22;7945;48.816;11.506;2024-03-02T03:13:57;7.60;99.90
15690;DHT22;7945;48.816;11.506;2024-03-02T03:16:25;7.60;99.90
15690;DHT22;7945;48.816;11.506;2024-03-02T03:18:52;7.70;99.90
15690;DHT22;7945;48.816;11.506;2024-03-02T03:21:19;7.70;99.90
15690;DHT22;7945;48.816;11.506;2024-03-02T03:23:46;7.70;99.90
15690;DHT22;7945;48.816;11.506;2024-03-02T03:26:13;7.70;99.90
15690;DHT22;7945;48.816;11.506;2024-03-02T03:28:40;7.70;99.90
15690;DHT22;7945;48.816;11.506;2024-03-02T03:31:08;7.70;99.90
15690;DHT22;7945;48.816;11.506;2024-03-02T03:33:36;7.70;99.90
15690;DHT22;7945;48.816;11.506;2024-03-02T03:36:03;7.70;99.90
15690;DHT22;7945;48.816;11.506;2024-03-02T03:38:30;7.70;99.90
15690;DHT22;7945;48.816;11.506;2024-03-02T03:40:56;7.70;99.90
15690;DHT22;7945;48.816;11.506;2024-03-02T03:43:23;7.80;99.90
15690;DHT22;7945;48.816;11.506;2024-03-02T03:45:50;7.80;99.90
15690;DHT22;7945;48.816;11.506;2024-03-02T03:48:18;7.80;99.90
15690;DHT22;7945;48.816;11.506;2024-03-02T03:50:45;7.80;99.90
15690;DHT22;7945;48.816;11.506;2024-03-02T03:53:11;7.90;99.90
15690;DHT22;7945;48.816;11.506;2024-03-02T03:55:40;7.90;99.90
15690;DHT22;7945;48.816;11.506;2024-03-02T03:58:06;7.90;99.90
15690;DHT22;7945;48.816;11.506;2024-03-02T04:00:33;7.90;99.90
15690;DHT22;7945;48.816;11.506;2024-03-02T04:03:00;7.90;99.90
15690;DHT22;7945;48.816;11.506;2024-03-02T04:05:28;7.90;99.90
15690;DHT22;7945;48.816;11.506;2024-03-02T04:07:55;7.90;99.90
15690;DHT22;7945;48.816;11.506;2024-03-02T04:10:21;7.90;99.90
15690;DHT22;7945;48.816;11.506;2024-03-02T04:12:49;7.90;99.90
15690;DHT22;7945;48.816;11.506;2024-03-02T04:15:16;7.90;99.90
15690;DHT22;7945;48.816;11.506;2024-03-02T04:17:44;7.90;99.90
15690;DHT22;7945;48.816;11.506;2024-03-02T04:20:11;7.90;99.90
15690;DHT22;7945;48.816;11.506;2024-03-02T04:22:39;7.90;99.90
15690;DHT22;7945;48.816;11.506;2024-03-02T04:25:06;8.00;99.90
15690;DHT22;7945;48.816;11.506;2024-03-02T04:27:33;8.00;99.90
15690;DHT22;7945;48.816;11.506;2024-03-02T04:30:00;8.00;99.90
15690;DHT22;7945;48.816;11.506;2024-03-02T04:32:27;8.00;99.90
15690;DHT22;7945;48.816;11.506;2024-03-02T04:34:53;8.00;99.90
15690;DHT22;7945;48.816;11.506;2024-03-02T04:37:20;8.00;99.90
15690;DHT22;7945;48.816;11.506;2024-03-02T04:39:48;8.00;99.90
15690;DHT22;7945;48.816;11.506;2024-03-02T04:42:15;8.00;99.90
15690;DHT22;7945;48.816;11.506;2024-03-02T04:44:42;8.00;99.90
15690;DHT22;7945;48.816;11.506;2024-03-02T04:47:08;8.00;99.90
15690;DHT22;7945;48.816;11.506;2024-03-02T04:49:35;8.00;99.90
15690;DHT22;7945;48.816;11.506;2024-03-02T04:52:02;8.00;99.90
15690;DHT22;7945;48.816;11.506;2024-03-02T04:54:29;8.00;99.90
15690;DHT22;7945;48.816;11.506;2024-03-02T04:56:57;8.00;99.90
15690;DHT22;7945;48.816;11.506;2024-03-02T04:59:24;8.10;99.90
15690;DHT22;7945;48.816;11.506;2024-03-02T05:01:50;8.10;99.90
15690;DHT22;7945;48.816;11.506;2024-03-02T05:04:17;8.10;99.90
15690;DHT22;7945;48.816;11.506;2024-03-02T05:06:44;8.00;99.90
15690;DHT22;7945;48.816;11.506;2024-03-02T05:09:17;8.00;99.90
15690;DHT22;7945;48.816;11.506;2024-03-02T05:11:44;8.00;99.90
15690;DHT22;7945;48.816;11.506;2024-03-02T05:14:36;8.00;99.90
15690;DHT22;7945;48.816;11.506;2024-03-02T05:17:03;8.10;99.90
15690;DHT22;7945;48.816;11.506;2024-03-02T05:19:30;8.00;99.90
15690;DHT22;7945;48.816;11.506;2024-03-02T05:21:57;8.00;99.90
15690;DHT22;7945;48.816;11.506;2024-03-02T05:24:24;8.00;99.90
15690;DHT22;7945;48.816;11.506;2024-03-02T05:26:52;8.00;99.90
15690;DHT22;7945;48.816;11.506;2024-03-02T05:29:19;8.00;99.90
15690;DHT22;7945;48.816;11.506;2024-03-02T05:31:47;7.90;99.90
15690;DHT22;7945;48.816;11.506;2024-03-02T05:34:14;7.80;99.90
15690;DHT22;7945;48.816;11.506;2024-03-02T05:36:40;7.80;99.90
15690;DHT22;7945;48.816;11.506;2024-03-02T05:39:07;7.70;99.90
15690;DHT22;7945;48.816;11.506;2024-03-02T05:41:34;7.70;99.90
15690;DHT22;7945;48.816;11.506;2024-03-02T05:44:01;7.60;99.90
15690;DHT22;7945;48.816;11.506;2024-03-02T05:46:28;7.60;99.90
15690;DHT22;7945;48.816;11.506;2024-03-02T05:48:56;7.60;99.90
15690;DHT22;7945;48.816;11.506;2024-03-02T05:51:23;7.60;99.90
15690;DHT22;7945;48.816;11.506;2024-03-02T05:53:49;7.60;99.90
15690;DHT22;7945;48.816;11.506;2024-03-02T05:56:16;7.50;99.90
15690;DHT22;7945;48.816;11.506;2024-03-02T05:58:43;7.50;99.90
15690;DHT22;7945;48.816;11.506;2024-03-02T06:01:23;7.50;99.90
15690;DHT22;7945;48.816;11.506;2024-03-02T06:03:54;7.50;99.90
15690;DHT22;7945;48.816;11.506;2024-03-02T06:06:22;7.50;99.90
15690;DHT22;7945;48.816;11.506;2024-03-02T06:08:49;7.50;99.90
15690;DHT22;7945;48.816;11.506;2024-03-02T06:11:15;7.50;99.90
15690;DHT22;7945;48.816;11.506;2024-03-02T06:16:18;7.50;99.90
15690;DHT22;7945;48.816;11.506;2024-03-02T06:18:44;7.50;99.90
15690;DHT22;7945;48.816;11.506;2024-03-02T06:21:11;7.50;99.90
15690;DHT22;7945;48.816;11.506;2024-03-02T06:23:38;7.50;99.90
15690;DHT22;7945;48.816;11.506;2024-03-02T06:26:05;7.40;99.90
15690;DHT22;7945;48.816;11.506;2024-03-02T06:28:31;7.40;99.90
15690;DHT22;7945;48.816;11.506;2024-03-02T06:30:58;7.40;99.90
15690;DHT22;7945;48.816;11.506;2024-03-02T06:33:26;7.30;99.90
15690;DHT22;7945;48.816;11.506;2024-03-02T06:35:52;7.30;99.90
15690;DHT22;7945;48.816;11.506;2024-03-02T06:38:18;7.30;99.90
15690;DHT22;7945;48.816;11.506;2024-03-02T06:40:45;7.20;99.90
15690;DHT22;7945;48.816;11.506;2024-03-02T06:43:12;7.20;99.90
15690;DHT22;7945;48.816;11.506;2024-03-02T06:45:39;7.20;99.90
15690;DHT22;7945;48.816;11.506;2024-03-02T06:48:06;7.20;99.90
15690;DHT22;7945;48.816;11.506;2024-03-02T06:50:34;7.20;99.90
15690;DHT22;7945;48.816;11.506;2024-03-02T06:53:01;7.20;99.90
15690;DHT22;7945;48.816;11.506;2024-03-02T06:55:29;7.20;99.90
15690;DHT22;7945;48.816;11.506;2024-03-02T06:57:56;7.20;99.90
15690;DHT22;7945;48.816;11.506;2024-03-02T07:00:23;7.20;99.90
15690;DHT22;7945;48.816;11.506;2024-03-02T07:02:49;7.20;99.90
15690;DHT22;7945;48.816;11.506;2024-03-02T07:05:16;7.20;99.90
15690;DHT22;7945;48.816;11.506;2024-03-02T07:07:44;7.30;99.90
15690;DHT22;7945;48.816;11.506;2024-03-02T07:10:11;7.30;99.90
15690;DHT22;7945;48.816;11.506;2024-03-02T07:12:38;7.30;99.90
15690;DHT22;7945;48.816;11.506;2024-03-02T07:15:05;7.40;99.90
15690;DHT22;7945;48.816;11.506;2024-03-02T07:17:54;7.40;99.90
15690;DHT22;7945;48.816;11.506;2024-03-02T07:20:21;7.40;99.90
15690;DHT22;7945;48.816;11.506;2024-03-02T07:22:49;7.50;99.90
15690;DHT22;7945;48.816;11.506;2024-03-02T07:25:16;7.50;99.90
15690;DHT22;7945;48.816;11.506;2024-03-02T07:27:43;7.50;99.90
15690;DHT22;7945;48.816;11.506;2024-03-02T07:30:14;7.50;99.90
15690;DHT22;7945;48.816;11.506;2024-03-02T07:32:41;7.50;99.90
15690;DHT22;7945;48.816;11.506;2024-03-02T07:35:11;7.50;99.90
15690;DHT22;7945;48.816;11.506;2024-03-02T07:37:38;7.40;99.90
15690;DHT22;7945;48.816;11.506;2024-03-02T07:40:07;7.40;99.90
15690;DHT22;7945;48.816;11.506;2024-03-02T07:42:36;7.40;99.90
15690;DHT22;7945;48.816;11.506;2024-03-02T07:45:04;7.40;99.90
15690;DHT22;7945;48.816;11.506;2024-03-02T07:47:31;7.30;99.90
15690;DHT22;7945;48.816;11.506;2024-03-02T07:49:57;7.40;99.90
15690;DHT22;7945;48.816;11.506;2024-03-02T07:52:24;7.40;99.90
15690;DHT22;7945;48.816;11.506;2024-03-02T07:54:51;7.50;99.90
15690;DHT22;7945;48.816;11.506;2024-03-02T07:57:19;7.50;99.90
15690;DHT22;7945;48.816;11.506;2024-03-02T07:59:46;7.50;99.90
15690;DHT22;7945;48.816;11.506;2024-03-02T08:02:13;7.50;99.90
15690;DHT22;7945;48.816;11.506;2024-03-02T08:04:40;7.50;99.90
15690;DHT22;7945;48.816;11.506;2024-03-02T08:07:07;7.50;99.90
15690;DHT22;7945;48.816;11.506;2024-03-02T08:09:34;7.50;99.90
15690;DHT22;7945;48.816;11.506;2024-03-02T08:12:01;7.50;99.90
15690;DHT22;7945;48.816;11.506;2024-03-02T08:14:29;7.50;99.90
15690;DHT22;7945;48.816;11.506;2024-03-02T08:16:56;7.50;99.90
15690;DHT22;7945;48.816;11.506;2024-03-02T08:19:23;7.50;99.90
15690;DHT22;7945;48.816;11.506;2024-03-02T08:21:50;7.50;99.90
15690;DHT22;7945;48.816;11.506;2024-03-02T08:24:16;7.50;99.90
15690;DHT22;7945;48.816;11.506;2024-03-02T08:26:43;7.50;99.90
15690;DHT22;7945;48.816;11.506;2024-03-02T08:29:10;7.60;99.90
15690;DHT22;7945;48.816;11.506;2024-03-02T08:31:38;7.60;99.90
15690;DHT22;7945;48.816;11.506;2024-03-02T08:34:05;7.50;99.90
15690;DHT22;7945;48.816;11.506;2024-03-02T08:36:32;7.50;99.90
15690;DHT22;7945;48.816;11.506;2024-03-02T08:38:59;7.50;99.90
15690;DHT22;7945;48.816;11.506;2024-03-02T08:41:25;7.50;99.90
15690;DHT22;7945;48.816;11.506;2024-03-02T08:43:52;7.50;99.90
15690;DHT22;7945;48.816;11.506;2024-03-02T08:46:19;7.50;99.90
15690;DHT22;7945;48.816;11.506;2024-03-02T08:48:47;7.50;99.90
15690;DHT22;7945;48.816;11.506;2024-03-02T08:51:14;7.50;99.90
15690;DHT22;7945;48.816;11.506;2024-03-02T08:53:41;7.50;99.90
15690;DHT22;7945;48.816;11.506;2024-03-02T08:56:09;7.50;99.90
15690;DHT22;7945;48.816;11.506;2024-03-02T08:58:36;7.50;99.90
15690;DHT22;7945;48.816;11.506;2024-03-02T09:01:02;7.60;99.90
15690;DHT22;7945;48.816;11.506;2024-03-02T09:03:29;7.60;99.90
15690;DHT22;7945;48.816;11.506;2024-03-02T09:06:00;7.60;99.90
15690;DHT22;7945;48.816;11.506;2024-03-02T09:08:26;7.60;99.90
15690;DHT22;7945;48.816;11.506;2024-03-02T09:10:54;7.60;99.90
15690;DHT22;7945;48.816;11.506;2024-03-02T09:13:21;7.60;99.90
15690;DHT22;7945;48.816;11.506;2024-03-02T09:15:48;7.70;99.90
15690;DHT22;7945;48.816;11.506;2024-03-02T09:18:15;7.70;99.90
15690;DHT22;7945;48.816;11.506;2024-03-02T09:20:42;7.70;99.90
15690;DHT22;7945;48.816;11.506;2024-03-02T09:23:10;7.80;99.90
15690;DHT22;7945;48.816;11.506;2024-03-02T09:25:36;7.90;99.90
15690;DHT22;7945;48.816;11.506;2024-03-02T09:28:03;7.90;99.90
15690;DHT22;7945;48.816;11.506;2024-03-02T09:30:30;7.90;99.90
15690;DHT22;7945;48.816;11.506;2024-03-02T09:32:57;8.00;99.90
15690;DHT22;7945;48.816;11.506;2024-03-02T09:35:24;8.00;99.90
15690;DHT22;7945;48.816;11.506;2024-03-02T09:37:51;8.00;99.90
15690;DHT22;7945;48.816;11.506;2024-03-02T09:40:21;8.10;99.90
15690;DHT22;7945;48.816;11.506;2024-03-02T09:42:48;8.20;99.90
15690;DHT22;7945;48.816;11.506;2024-03-02T09:45:20;8.30;99.90
15690;DHT22;7945;48.816;11.506;2024-03-02T09:47:49;8.40;99.90
15690;DHT22;7945;48.816;11.506;2024-03-02T09:50:16;8.50;99.90
15690;DHT22;7945;48.816;11.506;2024-03-02T09:52:43;8.60;99.90
15690;DHT22;7945;48.816;11.506;2024-03-02T09:55:09;8.70;99.90
15690;DHT22;7945;48.816;11.506;2024-03-02T09:57:39;8.80;99.90
15690;DHT22;7945;48.816;11.506;2024-03-02T10:00:08;8.80;99.90
15690;DHT22;7945;48.816;11.506;2024-03-02T10:02:40;8.90;99.90
15690;DHT22;7945;48.816;11.506;2024-03-02T10:05:07;8.90;99.90
15690;DHT22;7945;48.816;11.506;2024-03-02T10:07:34;8.90;99.90
15690;DHT22;7945;48.816;11.506;2024-03-02T10:10:13;8.90;99.90
15690;DHT22;7945;48.816;11.506;2024-03-02T10:12:41;9.00;99.90
15690;DHT22;7945;48.816;11.506;2024-03-02T10:15:08;9.00;99.90
15690;DHT22;7945;48.816;11.506;2024-03-02T10:17:35;9.00;99.90
15690;DHT22;7945;48.816;11.506;2024-03-02T10:20:21;9.10;99.90
15690;DHT22;7945;48.816;11.506;2024-03-02T10:22:48;9.10;99.90
15690;DHT22;7945;48.816;11.506;2024-03-02T10:25:29;9.10;99.90
15690;DHT22;7945;48.816;11.506;2024-03-02T10:27:58;9.10;99.90
15690;DHT22;7945;48.816;11.506;2024-03-02T10:30:26;9.10;99.90
15690;DHT22;7945;48.816;11.506;2024-03-02T10:32:53;9.20;99.90
15690;DHT22;7945;48.816;11.506;2024-03-02T10:35:20;9.20;99.90
15690;DHT22;7945;48.816;11.506;2024-03-02T10:37:47;9.40;99.90
15690;DHT22;7945;48.816;11.506;2024-03-02T10:40:14;9.50;99.90
15690;DHT22;7945;48.816;11.506;2024-03-02T10:42:42;9.50;99.90
15690;DHT22;7945;48.816;11.506;2024-03-02T10:45:12;9.60;99.90
15690;DHT22;7945;48.816;11.506;2024-03-02T10:47:41;9.70;99.90
15690;DHT22;7945;48.816;11.506;2024-03-02T10:50:09;9.70;99.90
15690;DHT22;7945;48.816;11.506;2024-03-02T10:52:36;9.70;99.90
15690;DHT22;7945;48.816;11.506;2024-03-02T10:55:03;9.80;99.90
15690;DHT22;7945;48.816;11.506;2024-03-02T10:57:36;9.80;99.90
15690;DHT22;7945;48.816;11.506;2024-03-02T11:00:11;9.90;99.90
15690;DHT22;7945;48.816;11.506;2024-03-02T11:02:44;9.80;99.90
15690;DHT22;7945;48.816;11.506;2024-03-02T11:05:18;9.80;99.90
15690;DHT22;7945;48.816;11.506;2024-03-02T11:07:47;9.90;99.90
15690;DHT22;7945;48.816;11.506;2024-03-02T11:10:15;9.80;99.90
15690;DHT22;7945;48.816;11.506;2024-03-02T11:12:48;9.90;99.90
15690;DHT22;7945;48.816;11.506;2024-03-02T11:15:19;10.00;99.90
15690;DHT22;7945;48.816;11.506;2024-03-02T11:17:47;10.00;99.90
15690;DHT22;7945;48.816;11.506;2024-03-02T11:20:17;10.10;99.90
15690;DHT22;7945;48.816;11.506;2024-03-02T11:22:45;10.20;99.90
15690;DHT22;7945;48.816;11.506;2024-03-02T11:25:23;10.20;99.90
15690;DHT22;7945;48.816;11.506;2024-03-02T11:28:03;10.20;99.90
15690;DHT22;7945;48.816;11.506;2024-03-02T11:30:51;10.30;99.90
15690;DHT22;7945;48.816;11.506;2024-03-02T11:33:25;10.30;99.90
15690;DHT22;7945;48.816;11.506;2024-03-02T11:35:53;10.40;99.90
15690;DHT22;7945;48.816;11.506;2024-03-02T11:38:19;10.50;99.90
15690;DHT22;7945;48.816;11.506;2024-03-02T11:40:47;10.60;99.90
15690;DHT22;7945;48.816;11.506;2024-03-02T11:43:14;9.90;99.90
15690;DHT22;7945;48.816;11.506;2024-03-02T11:45:43;10.70;99.90
15690;DHT22;7945;48.816;11.506;2024-03-02T11:48:13;10.80;99.90
15690;DHT22;7945;48.816;11.506;2024-03-02T11:50:42;10.90;99.90
15690;DHT22;7945;48.816;11.506;2024-03-02T11:53:10;10.90;99.90
15690;DHT22;7945;48.816;11.506;2024-03-02T11:55:38;10.90;99.90
15690;DHT22;7945;48.816;11.506;2024-03-02T11:58:06;10.80;99.90
15690;DHT22;7945;48.816;11.506;2024-03-02T12:00:33;10.80;99.90
15690;DHT22;7945;48.816;11.506;2024-03-02T12:03:00;10.80;99.90
15690;DHT22;7945;48.816;11.506;2024-03-02T12:05:29;10.80;99.90
15690;DHT22;7945;48.816;11.506;2024-03-02T12:07:57;10.80;99.90
15690;DHT22;7945;48.816;11.506;2024-03-02T12:10:24;11.00;99.90
15690;DHT22;7945;48.816;11.506;2024-03-02T12:12:56;11.00;99.90
15690;DHT22;7945;48.816;11.506;2024-03-02T12:15:24;11.20;99.90
15690;DHT22;7945;48.816;11.506;2024-03-02T12:17:53;11.20;99.90
15690;DHT22;7945;48.816;11.506;2024-03-02T12:20:20;11.40;99.90
15690;DHT22;7945;48.816;11.506;2024-03-02T12:22:50;11.50;99.90
15690;DHT22;7945;48.816;11.506;2024-03-02T12:25:19;11.60;99.90
15690;DHT22;7945;48.816;11.506;2024-03-02T12:27:46;11.60;99.90
15690;DHT22;7945;48.816;11.506;2024-03-02T12:30:14;11.60;99.90
15690;DHT22;7945;48.816;11.506;2024-03-02T12:32:41;11.50;99.90
15690;DHT22;7945;48.816;11.506;2024-03-02T12:35:09;11.50;99.90
15690;DHT22;7945;48.816;11.506;2024-03-02T12:37:43;11.50;99.90
15690;DHT22;7945;48.816;11.506;2024-03-02T12:40:12;11.40;99.90
15690;DHT22;7945;48.816;11.506;2024-03-02T12:42:39;11.50;99.90
15690;DHT22;7945;48.816;11.506;2024-03-02T12:45:07;11.60;99.90
15690;DHT22;7945;48.816;11.506;2024-03-02T12:47:34;11.60;99.90
15690;DHT22;7945;48.816;11.506;2024-03-02T12:50:01;11.70;99.90
15690;DHT22;7945;48.816;11.506;2024-03-02T12:52:28;11.70;99.90
15690;DHT22;7945;48.816;11.506;2024-03-02T12:54:56;11.70;99.90
15690;DHT22;7945;48.816;11.506;2024-03-02T12:57:26;11.80;99.90
15690;DHT22;7945;48.816;11.506;2024-03-02T12:59:58;11.70;99.90
15690;DHT22;7945;48.816;11.506;2024-03-02T13:02:28;11.70;99.90
15690;DHT22;7945;48.816;11.506;2024-03-02T13:04:55;11.60;99.90
15690;DHT22;7945;48.816;11.506;2024-03-02T13:07:23;11.60;99.90
15690;DHT22;7945;48.816;11.506;2024-03-02T13:09:50;11.60;99.90
15690;DHT22;7945;48.816;11.506;2024-03-02T13:12:16;11.70;99.90
15690;DHT22;7945;48.816;11.506;2024-03-02T13:14:48;11.70;99.90
15690;DHT22;7945;48.816;11.506;2024-03-02T13:17:15;11.80;99.90
15690;DHT22;7945;48.816;11.506;2024-03-02T13:19:50;11.80;99.90
15690;DHT22;7945;48.816;11.506;2024-03-02T13:22:18;11.80;99.90
15690;DHT22;7945;48.816;11.506;2024-03-02T13:24:44;11.80;99.90
15690;DHT22;7945;48.816;11.506;2024-03-02T13:27:11;11.80;99.90
15690;DHT22;7945;48.816;11.506;2024-03-02T13:29:38;11.90;99.90
15690;DHT22;7945;48.816;11.506;2024-03-02T13:32:07;11.90;99.90
15690;DHT22;7945;48.816;11.506;2024-03-02T13:34:35;11.80;99.90
15690;DHT22;7945;48.816;11.506;2024-03-02T13:37:02;11.80;99.90
15690;DHT22;7945;48.816;11.506;2024-03-02T13:39:30;11.90;99.90
15690;DHT22;7945;48.816;11.506;2024-03-02T13:41:57;11.90;99.90
15690;DHT22;7945;48.816;11.506;2024-03-02T13:44:29;11.90;99.90
15690;DHT22;7945;48.816;11.506;2024-03-02T13:46:56;11.90;99.90
15690;DHT22;7945;48.816;11.506;2024-03-02T13:49:25;12.00;99.90
15690;DHT22;7945;48.816;11.506;2024-03-02T13:51:54;11.90;99.90
15690;DHT22;7945;48.816;11.506;2024-03-02T13:54:22;11.90;99.90
15690;DHT22;7945;48.816;11.506;2024-03-02T13:56:49;11.80;99.90
15690;DHT22;7945;48.816;11.506;2024-03-02T13:59:15;11.80;99.90
15690;DHT22;7945;48.816;11.506;2024-03-02T14:01:42;11.80;99.90
15690;DHT22;7945;48.816;11.506;2024-03-02T14:04:09;11.80;99.90
15690;DHT22;7945;48.816;11.506;2024-03-02T14:06:37;11.80;99.90
15690;DHT22;7945;48.816;11.506;2024-03-02T14:09:04;11.80;99.90
15690;DHT22;7945;48.816;11.506;2024-03-02T14:11:30;11.90;99.90
15690;DHT22;7945;48.816;11.506;2024-03-02T14:13:57;11.90;99.90
15690;DHT22;7945;48.816;11.506;2024-03-02T14:16:24;11.90;99.90
15690;DHT22;7945;48.816;11.506;2024-03-02T14:18:51;12.00;99.90
15690;DHT22;7945;48.816;11.506;2024-03-02T14:21:17;11.90;99.90
15690;DHT22;7945;48.816;11.506;2024-03-02T14:23:45;12.00;99.90
15690;DHT22;7945;48.816;11.506;2024-03-02T14:26:12;12.00;99.90
15690;DHT22;7945;48.816;11.506;2024-03-02T14:28:39;12.00;99.90
15690;DHT22;7945;48.816;11.506;2024-03-02T14:31:06;12.00;99.90
15690;DHT22;7945;48.816;11.506;2024-03-02T14:33:32;12.00;99.90
15690;DHT22;7945;48.816;11.506;2024-03-02T14:35:59;11.90;99.90
15690;DHT22;7945;48.816;11.506;2024-03-02T14:38:26;12.00;99.90
15690;DHT22;7945;48.816;11.506;2024-03-02T14:40:55;11.90;99.90
15690;DHT22;7945;48.816;11.506;2024-03-02T14:43:22;11.90;99.90
15690;DHT22;7945;48.816;11.506;2024-03-02T14:45:49;11.90;99.90
15690;DHT22;7945;48.816;11.506;2024-03-02T14:48:16;12.00;99.90
15690;DHT22;7945;48.816;11.506;2024-03-02T14:50:43;11.90;99.90
15690;DHT22;7945;48.816;11.506;2024-03-02T14:53:09;11.90;99.90
15690;DHT22;7945;48.816;11.506;2024-03-02T14:55:36;11.90;99.90
15690;DHT22;7945;48.816;11.506;2024-03-02T14:58:04;11.90;99.90
15690;DHT22;7945;48.816;11.506;2024-03-02T15:00:31;11.90;99.90
15690;DHT22;7945;48.816;11.506;2024-03-02T15:02:58;11.90;99.90
15690;DHT22;7945;48.816;11.506;2024-03-02T15:05:25;11.90;99.90
15690;DHT22;7945;48.816;11.506;2024-03-02T15:07:52;11.80;99.90
15690;DHT22;7945;48.816;11.506;2024-03-02T15:10:19;11.80;99.90
15690;DHT22;7945;48.816;11.506;2024-03-02T15:12:45;11.70;99.90
15690;DHT22;7945;48.816;11.506;2024-03-02T15:15:14;11.60;99.90
15690;DHT22;7945;48.816;11.506;2024-03-02T15:17:41;11.60;99.90
15690;DHT22;7945;48.816;11.506;2024-03-02T15:20:09;11.50;99.90
15690;DHT22;7945;48.816;11.506;2024-03-02T15:22:36;11.50;99.90
15690;DHT22;7945;48.816;11.506;2024-03-02T15:25:03;11.40;99.90
15690;DHT22;7945;48.816;11.506;2024-03-02T15:27:30;11.40;99.90
15690;DHT22;7945;48.816;11.506;2024-03-02T15:29:56;11.40;99.90
15690;DHT22;7945;48.816;11.506;2024-03-02T15:32:24;11.40;99.90
15690;DHT22;7945;48.816;11.506;2024-03-02T15:34:52;11.40;99.90
15690;DHT22;7945;48.816;11.506;2024-03-02T15:37:19;11.40;99.90
15690;DHT22;7945;48.816;11.506;2024-03-02T15:39:45;11.40;99.90
15690;DHT22;7945;48.816;11.506;2024-03-02T15:42:12;11.40;99.90
15690;DHT22;7945;48.816;11.506;2024-03-02T15:44:39;11.40;99.90
15690;DHT22;7945;48.816;11.506;2024-03-02T15:47:06;11.30;99.90
15690;DHT22;7945;48.816;11.506;2024-03-02T15:49:35;11.30;99.90